sensor_id;sensor_type;location;lat;lon;timestamp;P1;durP1;ratioP1;P2;durP2;ratioP2
70467;SDS011;57934;51.532;7.684;2023-11-21T00:02:14;20.20;;;10.15;;
70467;SDS011;57934;51.532;7.684;2023-11-21T00:04:40;19.70;;;9.88;;
70467;SDS011;57934;51.532;7.684;2023-11-21T00:07:07;20.00;;;9.85;;
70467;SDS011;57934;51.532;7.684;2023-11-21T00:09:33;16.08;;;9.77;;
70467;SDS011;57934;51.532;7.684;2023-11-21T00:11:59;14.68;;;9.75;;
70467;SDS011;57934;51.532;7.684;2023-11-21T00:14:25;16.58;;;10.18;;
70467;SDS011;57934;51.532;7.684;2023-11-21T00:16:51;21.08;;;11.13;;
70467;SDS011;57934;51.532;7.684;2023-11-21T00:19:17;18.35;;;10.23;;
70467;SDS011;57934;51.532;7.684;2023-11-21T00:21:43;18.02;;;10.68;;
70467;SDS011;57934;51.532;7.684;2023-11-21T00:24:11;18.90;;;10.00;;
70467;SDS011;57934;51.532;7.684;2023-11-21T00:26:39;19.02;;;10.07;;
70467;SDS011;57934;51.532;7.684;2023-11-21T00:29:08;17.35;;;10.00;;
70467;SDS011;57934;51.532;7.684;2023-11-21T00:31:34;21.38;;;10.60;;
70467;SDS011;57934;51.532;7.684;2023-11-21T00:34:05;17.48;;;10.07;;
70467;SDS011;57934;51.532;7.684;2023-11-21T00:36:31;24.38;;;10.50;;
70467;SDS011;57934;51.532;7.684;2023-11-21T00:38:58;16.20;;;10.40;;
70467;SDS011;57934;51.532;7.684;2023-11-21T00:41:25;21.05;;;10.85;;
70467;SDS011;57934;51.532;7.684;2023-11-21T00:43:53;21.92;;;10.80;;
70467;SDS011;57934;51.532;7.684;2023-11-21T00:46:21;19.48;;;10.65;;
70467;SDS011;57934;51.532;7.684;2023-11-21T00:48:48;19.08;;;10.35;;
70467;SDS011;57934;51.532;7.684;2023-11-21T00:51:16;17.98;;;10.07;;
70467;SDS011;57934;51.532;7.684;2023-11-21T00:53:43;20.08;;;10.07;;
70467;SDS011;57934;51.532;7.684;2023-11-21T00:56:09;17.55;;;9.93;;
70467;SDS011;57934;51.532;7.684;2023-11-21T00:58:36;23.25;;;11.23;;
70467;SDS011;57934;51.532;7.684;2023-11-21T01:01:02;18.30;;;11.25;;
70467;SDS011;57934;51.532;7.684;2023-11-21T01:03:29;19.90;;;10.73;;
70467;SDS011;57934;51.532;7.684;2023-11-21T01:05:55;18.25;;;10.77;;
70467;SDS011;57934;51.532;7.684;2023-11-21T01:08:21;19.40;;;9.65;;
70467;SDS011;57934;51.532;7.684;2023-11-21T01:10:47;19.80;;;10.30;;
70467;SDS011;57934;51.532;7.684;2023-11-21T01:13:13;21.67;;;10.38;;
70467;SDS011;57934;51.532;7.684;2023-11-21T01:15:41;20.50;;;10.20;;
70467;SDS011;57934;51.532;7.684;2023-11-21T01:18:07;18.15;;;11.15;;
70467;SDS011;57934;51.532;7.684;2023-11-21T01:20:34;22.38;;;10.68;;
70467;SDS011;57934;51.532;7.684;2023-11-21T01:23:00;16.52;;;10.52;;
70467;SDS011;57934;51.532;7.684;2023-11-21T01:25:27;16.80;;;9.48;;
70467;SDS011;57934;51.532;7.684;2023-11-21T01:27:53;18.55;;;10.15;;
70467;SDS011;57934;51.532;7.684;2023-11-21T01:30:19;20.45;;;10.93;;
70467;SDS011;57934;51.532;7.684;2023-11-21T01:32:45;17.83;;;10.88;;
70467;SDS011;57934;51.532;7.684;2023-11-21T01:35:11;20.13;;;10.55;;
70467;SDS011;57934;51.532;7.684;2023-11-21T01:37:37;20.17;;;10.85;;
70467;SDS011;57934;51.532;7.684;2023-11-21T01:40:04;23.90;;;11.00;;
70467;SDS011;57934;51.532;7.684;2023-11-21T01:42:35;24.08;;;11.30;;
70467;SDS011;57934;51.532;7.684;2023-11-21T01:45:01;26.55;;;11.30;;
70467;SDS011;57934;51.532;7.684;2023-11-21T01:47:33;18.80;;;10.73;;
70467;SDS011;57934;51.532;7.684;2023-11-21T01:50:02;17.23;;;11.43;;
70467;SDS011;57934;51.532;7.684;2023-11-21T01:52:30;20.42;;;11.15;;
70467;SDS011;57934;51.532;7.684;2023-11-21T01:54:57;20.00;;;11.68;;
70467;SDS011;57934;51.532;7.684;2023-11-21T01:57:25;19.80;;;11.82;;
70467;SDS011;57934;51.532;7.684;2023-11-21T01:59:54;24.70;;;11.70;;
70467;SDS011;57934;51.532;7.684;2023-11-21T02:02:20;21.00;;;12.15;;
70467;SDS011;57934;51.532;7.684;2023-11-21T02:04:46;21.63;;;11.73;;
70467;SDS011;57934;51.532;7.684;2023-11-21T02:07:12;21.52;;;11.15;;
70467;SDS011;57934;51.532;7.684;2023-11-21T02:09:38;21.92;;;12.27;;
70467;SDS011;57934;51.532;7.684;2023-11-21T02:12:09;24.75;;;12.25;;
70467;SDS011;57934;51.532;7.684;2023-11-21T02:14:39;21.10;;;12.00;;
70467;SDS011;57934;51.532;7.684;2023-11-21T02:17:05;21.05;;;11.75;;
70467;SDS011;57934;51.532;7.684;2023-11-21T02:19:31;22.70;;;11.82;;
70467;SDS011;57934;51.532;7.684;2023-11-21T02:21:58;21.83;;;12.02;;
70467;SDS011;57934;51.532;7.684;2023-11-21T02:24:32;21.45;;;12.18;;
70467;SDS011;57934;51.532;7.684;2023-11-21T02:26:58;22.10;;;11.85;;
70467;SDS011;57934;51.532;7.684;2023-11-21T02:29:24;18.98;;;11.27;;
70467;SDS011;57934;51.532;7.684;2023-11-21T02:31:55;22.05;;;12.23;;
70467;SDS011;57934;51.532;7.684;2023-11-21T02:34:21;20.73;;;12.07;;
70467;SDS011;57934;51.532;7.684;2023-11-21T02:36:48;27.60;;;12.38;;
70467;SDS011;57934;51.532;7.684;2023-11-21T02:39:17;19.17;;;12.18;;
70467;SDS011;57934;51.532;7.684;2023-11-21T02:41:44;22.27;;;12.25;;
70467;SDS011;57934;51.532;7.684;2023-11-21T02:44:10;21.98;;;12.25;;
70467;SDS011;57934;51.532;7.684;2023-11-21T02:46:36;23.35;;;13.10;;
70467;SDS011;57934;51.532;7.684;2023-11-21T02:49:03;22.35;;;13.13;;
70467;SDS011;57934;51.532;7.684;2023-11-21T02:51:29;27.40;;;13.70;;
70467;SDS011;57934;51.532;7.684;2023-11-21T02:53:56;22.02;;;13.15;;
70467;SDS011;57934;51.532;7.684;2023-11-21T02:56:27;22.30;;;12.95;;
70467;SDS011;57934;51.532;7.684;2023-11-21T02:58:56;25.25;;;13.80;;
70467;SDS011;57934;51.532;7.684;2023-11-21T03:01:23;26.58;;;12.98;;
70467;SDS011;57934;51.532;7.684;2023-11-21T03:03:49;31.65;;;14.30;;
70467;SDS011;57934;51.532;7.684;2023-11-21T03:06:19;23.92;;;14.30;;
70467;SDS011;57934;51.532;7.684;2023-11-21T03:08:45;25.83;;;14.45;;
70467;SDS011;57934;51.532;7.684;2023-11-21T03:11:12;22.83;;;13.68;;
70467;SDS011;57934;51.532;7.684;2023-11-21T03:13:42;22.23;;;13.98;;
70467;SDS011;57934;51.532;7.684;2023-11-21T03:16:08;25.15;;;15.52;;
70467;SDS011;57934;51.532;7.684;2023-11-21T03:18:36;26.77;;;15.00;;
70467;SDS011;57934;51.532;7.684;2023-11-21T03:21:06;23.50;;;14.35;;
70467;SDS011;57934;51.532;7.684;2023-11-21T03:23:35;25.50;;;14.68;;
70467;SDS011;57934;51.532;7.684;2023-11-21T03:26:03;23.83;;;15.70;;
70467;SDS011;57934;51.532;7.684;2023-11-21T03:28:29;31.13;;;15.00;;
70467;SDS011;57934;51.532;7.684;2023-11-21T03:30:56;29.30;;;14.82;;
70467;SDS011;57934;51.532;7.684;2023-11-21T03:33:23;25.80;;;14.98;;
70467;SDS011;57934;51.532;7.684;2023-11-21T03:35:50;25.02;;;14.70;;
70467;SDS011;57934;51.532;7.684;2023-11-21T03:38:18;29.85;;;14.63;;
70467;SDS011;57934;51.532;7.684;2023-11-21T03:40:45;26.58;;;14.50;;
70467;SDS011;57934;51.532;7.684;2023-11-21T03:43:11;25.98;;;15.98;;
70467;SDS011;57934;51.532;7.684;2023-11-21T03:45:38;28.05;;;15.55;;
70467;SDS011;57934;51.532;7.684;2023-11-21T03:48:06;30.33;;;16.17;;
70467;SDS011;57934;51.532;7.684;2023-11-21T03:50:33;28.42;;;15.30;;
70467;SDS011;57934;51.532;7.684;2023-11-21T03:52:59;30.77;;;16.88;;
70467;SDS011;57934;51.532;7.684;2023-11-21T03:55:25;32.65;;;16.52;;
70467;SDS011;57934;51.532;7.684;2023-11-21T03:57:51;34.83;;;18.08;;
70467;SDS011;57934;51.532;7.684;2023-11-21T04:00:19;27.95;;;15.50;;
70467;SDS011;57934;51.532;7.684;2023-11-21T04:02:48;31.00;;;15.80;;
70467;SDS011;57934;51.532;7.684;2023-11-21T04:05:14;34.08;;;15.88;;
70467;SDS011;57934;51.532;7.684;2023-11-21T04:07:40;33.63;;;16.00;;
70467;SDS011;57934;51.532;7.684;2023-11-21T04:10:07;33.55;;;16.52;;
70467;SDS011;57934;51.532;7.684;2023-11-21T04:12:38;36.15;;;16.92;;
70467;SDS011;57934;51.532;7.684;2023-11-21T04:15:05;29.73;;;16.05;;
70467;SDS011;57934;51.532;7.684;2023-11-21T04:17:31;31.55;;;16.15;;
70467;SDS011;57934;51.532;7.684;2023-11-21T04:19:57;33.88;;;16.63;;
70467;SDS011;57934;51.532;7.684;2023-11-21T04:22:23;31.45;;;16.52;;
70467;SDS011;57934;51.532;7.684;2023-11-21T04:24:49;33.58;;;16.08;;
70467;SDS011;57934;51.532;7.684;2023-11-21T04:27:15;27.38;;;15.50;;
70467;SDS011;57934;51.532;7.684;2023-11-21T04:29:43;30.58;;;17.25;;
70467;SDS011;57934;51.532;7.684;2023-11-21T04:32:10;30.42;;;16.95;;
70467;SDS011;57934;51.532;7.684;2023-11-21T04:34:36;32.63;;;16.98;;
70467;SDS011;57934;51.532;7.684;2023-11-21T04:37:03;28.80;;;16.13;;
70467;SDS011;57934;51.532;7.684;2023-11-21T04:39:31;31.10;;;16.77;;
70467;SDS011;57934;51.532;7.684;2023-11-21T04:41:57;33.38;;;16.60;;
70467;SDS011;57934;51.532;7.684;2023-11-21T04:44:23;35.05;;;16.73;;
70467;SDS011;57934;51.532;7.684;2023-11-21T04:46:49;33.97;;;17.27;;
70467;SDS011;57934;51.532;7.684;2023-11-21T04:49:17;30.67;;;16.60;;
70467;SDS011;57934;51.532;7.684;2023-11-21T04:51:43;38.00;;;16.50;;
70467;SDS011;57934;51.532;7.684;2023-11-21T04:54:09;29.20;;;16.67;;
70467;SDS011;57934;51.532;7.684;2023-11-21T04:56:35;29.13;;;16.27;;
70467;SDS011;57934;51.532;7.684;2023-11-21T04:59:01;32.20;;;17.45;;
70467;SDS011;57934;51.532;7.684;2023-11-21T05:01:27;35.40;;;16.08;;
70467;SDS011;57934;51.532;7.684;2023-11-21T05:03:53;32.65;;;17.27;;
70467;SDS011;57934;51.532;7.684;2023-11-21T05:06:19;31.42;;;18.55;;
70467;SDS011;57934;51.532;7.684;2023-11-21T05:08:45;30.67;;;17.77;;
70467;SDS011;57934;51.532;7.684;2023-11-21T05:11:12;34.95;;;17.02;;
70467;SDS011;57934;51.532;7.684;2023-11-21T05:13:38;40.15;;;19.10;;
70467;SDS011;57934;51.532;7.684;2023-11-21T05:16:04;37.05;;;18.58;;
70467;SDS011;57934;51.532;7.684;2023-11-21T05:18:32;35.05;;;18.13;;
70467;SDS011;57934;51.532;7.684;2023-11-21T05:20:58;36.13;;;19.05;;
70467;SDS011;57934;51.532;7.684;2023-11-21T05:23:24;30.52;;;17.58;;
70467;SDS011;57934;51.532;7.684;2023-11-21T05:25:50;38.88;;;19.38;;
70467;SDS011;57934;51.532;7.684;2023-11-21T05:28:16;33.03;;;19.50;;
70467;SDS011;57934;51.532;7.684;2023-11-21T05:30:42;31.35;;;17.95;;
70467;SDS011;57934;51.532;7.684;2023-11-21T05:33:09;40.40;;;19.05;;
70467;SDS011;57934;51.532;7.684;2023-11-21T05:35:35;37.38;;;18.98;;
70467;SDS011;57934;51.532;7.684;2023-11-21T05:38:01;44.00;;;19.42;;
70467;SDS011;57934;51.532;7.684;2023-11-21T05:40:29;40.25;;;19.77;;
70467;SDS011;57934;51.532;7.684;2023-11-21T05:42:55;35.83;;;19.48;;
70467;SDS011;57934;51.532;7.684;2023-11-21T05:45:21;40.20;;;20.77;;
70467;SDS011;57934;51.532;7.684;2023-11-21T05:47:47;40.40;;;19.27;;
70467;SDS011;57934;51.532;7.684;2023-11-21T05:50:14;40.33;;;19.00;;
70467;SDS011;57934;51.532;7.684;2023-11-21T05:52:42;43.65;;;19.45;;
70467;SDS011;57934;51.532;7.684;2023-11-21T05:55:09;37.00;;;19.08;;
70467;SDS011;57934;51.532;7.684;2023-11-21T05:57:39;38.75;;;19.58;;
70467;SDS011;57934;51.532;7.684;2023-11-21T06:00:07;34.45;;;18.67;;
70467;SDS011;57934;51.532;7.684;2023-11-21T06:02:40;35.40;;;18.40;;
70467;SDS011;57934;51.532;7.684;2023-11-21T06:05:07;32.55;;;18.25;;
70467;SDS011;57934;51.532;7.684;2023-11-21T06:07:34;36.85;;;19.23;;
70467;SDS011;57934;51.532;7.684;2023-11-21T06:10:07;32.80;;;17.52;;
70467;SDS011;57934;51.532;7.684;2023-11-21T06:12:38;32.10;;;16.33;;
70467;SDS011;57934;51.532;7.684;2023-11-21T06:15:06;30.13;;;17.05;;
70467;SDS011;57934;51.532;7.684;2023-11-21T06:17:37;29.98;;;17.67;;
70467;SDS011;57934;51.532;7.684;2023-11-21T06:20:03;33.55;;;16.98;;
70467;SDS011;57934;51.532;7.684;2023-11-21T06:22:38;24.15;;;15.90;;
70467;SDS011;57934;51.532;7.684;2023-11-21T06:25:05;26.75;;;14.70;;
70467;SDS011;57934;51.532;7.684;2023-11-21T06:27:32;28.55;;;15.50;;
70467;SDS011;57934;51.532;7.684;2023-11-21T06:29:59;26.17;;;15.55;;
70467;SDS011;57934;51.532;7.684;2023-11-21T06:32:26;28.80;;;16.08;;
70467;SDS011;57934;51.532;7.684;2023-11-21T06:34:51;29.73;;;16.58;;
70467;SDS011;57934;51.532;7.684;2023-11-21T06:37:20;31.17;;;15.55;;
70467;SDS011;57934;51.532;7.684;2023-11-21T06:39:49;23.60;;;15.02;;
70467;SDS011;57934;51.532;7.684;2023-11-21T06:42:18;27.98;;;15.73;;
70467;SDS011;57934;51.532;7.684;2023-11-21T06:44:47;29.05;;;15.82;;
70467;SDS011;57934;51.532;7.684;2023-11-21T06:47:14;29.80;;;16.73;;
70467;SDS011;57934;51.532;7.684;2023-11-21T06:49:42;28.38;;;16.05;;
70467;SDS011;57934;51.532;7.684;2023-11-21T06:52:09;32.92;;;17.52;;
70467;SDS011;57934;51.532;7.684;2023-11-21T06:54:36;32.05;;;17.55;;
70467;SDS011;57934;51.532;7.684;2023-11-21T06:57:02;30.77;;;16.83;;
70467;SDS011;57934;51.532;7.684;2023-11-21T06:59:29;32.38;;;15.95;;
70467;SDS011;57934;51.532;7.684;2023-11-21T07:01:55;32.05;;;17.15;;
70467;SDS011;57934;51.532;7.684;2023-11-21T07:04:21;34.88;;;18.27;;
70467;SDS011;57934;51.532;7.684;2023-11-21T07:06:47;35.75;;;18.25;;
70467;SDS011;57934;51.532;7.684;2023-11-21T07:09:13;31.30;;;17.45;;
70467;SDS011;57934;51.532;7.684;2023-11-21T07:11:39;29.17;;;17.20;;
70467;SDS011;57934;51.532;7.684;2023-11-21T07:14:05;41.75;;;18.92;;
70467;SDS011;57934;51.532;7.684;2023-11-21T07:16:34;33.03;;;17.33;;
70467;SDS011;57934;51.532;7.684;2023-11-21T07:19:03;38.30;;;18.88;;
70467;SDS011;57934;51.532;7.684;2023-11-21T07:21:32;33.00;;;17.67;;
70467;SDS011;57934;51.532;7.684;2023-11-21T07:23:59;34.88;;;17.52;;
70467;SDS011;57934;51.532;7.684;2023-11-21T07:26:30;34.33;;;17.98;;
70467;SDS011;57934;51.532;7.684;2023-11-21T07:28:56;34.17;;;18.50;;
70467;SDS011;57934;51.532;7.684;2023-11-21T07:31:22;30.20;;;17.80;;
70467;SDS011;57934;51.532;7.684;2023-11-21T07:33:50;36.70;;;18.27;;
70467;SDS011;57934;51.532;7.684;2023-11-21T07:36:19;42.75;;;19.10;;
70467;SDS011;57934;51.532;7.684;2023-11-21T07:38:46;37.70;;;19.02;;
70467;SDS011;57934;51.532;7.684;2023-11-21T07:41:13;38.20;;;17.88;;
70467;SDS011;57934;51.532;7.684;2023-11-21T07:43:41;36.88;;;18.00;;
70467;SDS011;57934;51.532;7.684;2023-11-21T07:46:08;33.47;;;17.77;;
70467;SDS011;57934;51.532;7.684;2023-11-21T07:48:34;35.00;;;17.90;;
70467;SDS011;57934;51.532;7.684;2023-11-21T07:51:01;40.80;;;19.90;;
70467;SDS011;57934;51.532;7.684;2023-11-21T07:53:32;33.13;;;19.42;;
70467;SDS011;57934;51.532;7.684;2023-11-21T07:56:02;41.50;;;19.40;;
70467;SDS011;57934;51.532;7.684;2023-11-21T07:58:29;43.53;;;20.33;;
70467;SDS011;57934;51.532;7.684;2023-11-21T08:00:55;43.75;;;21.10;;
70467;SDS011;57934;51.532;7.684;2023-11-21T08:03:21;42.55;;;20.20;;
70467;SDS011;57934;51.532;7.684;2023-11-21T08:05:47;51.30;;;21.85;;
70467;SDS011;57934;51.532;7.684;2023-11-21T08:08:13;51.80;;;22.27;;
70467;SDS011;57934;51.532;7.684;2023-11-21T08:10:39;46.50;;;21.48;;
70467;SDS011;57934;51.532;7.684;2023-11-21T08:13:05;48.38;;;24.45;;
70467;SDS011;57934;51.532;7.684;2023-11-21T08:15:34;47.95;;;22.85;;
70467;SDS011;57934;51.532;7.684;2023-11-21T08:18:02;50.90;;;22.33;;
70467;SDS011;57934;51.532;7.684;2023-11-21T08:20:29;48.05;;;24.52;;
70467;SDS011;57934;51.532;7.684;2023-11-21T08:22:55;52.22;;;23.35;;
70467;SDS011;57934;51.532;7.684;2023-11-21T08:25:22;47.75;;;23.95;;
70467;SDS011;57934;51.532;7.684;2023-11-21T08:27:48;45.92;;;22.00;;
70467;SDS011;57934;51.532;7.684;2023-11-21T08:30:14;53.63;;;23.27;;
70467;SDS011;57934;51.532;7.684;2023-11-21T08:32:42;61.55;;;24.10;;
70467;SDS011;57934;51.532;7.684;2023-11-21T08:35:09;44.08;;;23.48;;
70467;SDS011;57934;51.532;7.684;2023-11-21T08:37:37;47.00;;;23.80;;
70467;SDS011;57934;51.532;7.684;2023-11-21T08:40:05;51.38;;;25.13;;
70467;SDS011;57934;51.532;7.684;2023-11-21T08:42:35;50.40;;;23.70;;
70467;SDS011;57934;51.532;7.684;2023-11-21T08:45:01;56.67;;;25.35;;
70467;SDS011;57934;51.532;7.684;2023-11-21T08:47:27;46.38;;;23.48;;
70467;SDS011;57934;51.532;7.684;2023-11-21T08:49:53;61.65;;;24.88;;
70467;SDS011;57934;51.532;7.684;2023-11-21T08:52:20;47.70;;;24.90;;
70467;SDS011;57934;51.532;7.684;2023-11-21T08:54:49;56.25;;;25.92;;
70467;SDS011;57934;51.532;7.684;2023-11-21T08:57:22;50.97;;;25.08;;
70467;SDS011;57934;51.532;7.684;2023-11-21T08:59:48;46.95;;;24.65;;
70467;SDS011;57934;51.532;7.684;2023-11-21T09:02:14;53.42;;;25.02;;
70467;SDS011;57934;51.532;7.684;2023-11-21T09:04:40;45.75;;;23.67;;
70467;SDS011;57934;51.532;7.684;2023-11-21T09:07:06;50.72;;;24.67;;
70467;SDS011;57934;51.532;7.684;2023-11-21T09:09:32;44.58;;;23.67;;
70467;SDS011;57934;51.532;7.684;2023-11-21T09:11:59;50.65;;;24.23;;
70467;SDS011;57934;51.532;7.684;2023-11-21T09:14:27;47.63;;;24.13;;
70467;SDS011;57934;51.532;7.684;2023-11-21T09:16:54;43.28;;;22.85;;
70467;SDS011;57934;51.532;7.684;2023-11-21T09:19:23;47.28;;;22.00;;
70467;SDS011;57934;51.532;7.684;2023-11-21T09:21:49;44.05;;;21.77;;
70467;SDS011;57934;51.532;7.684;2023-11-21T09:24:18;40.15;;;20.88;;
70467;SDS011;57934;51.532;7.684;2023-11-21T09:26:44;49.10;;;22.88;;
70467;SDS011;57934;51.532;7.684;2023-11-21T09:29:11;56.72;;;23.33;;
70467;SDS011;57934;51.532;7.684;2023-11-21T09:31:37;52.58;;;22.73;;
70467;SDS011;57934;51.532;7.684;2023-11-21T09:34:04;50.88;;;24.60;;
70467;SDS011;57934;51.532;7.684;2023-11-21T09:36:32;60.25;;;23.90;;
70467;SDS011;57934;51.532;7.684;2023-11-21T09:38:59;62.60;;;26.08;;
70467;SDS011;57934;51.532;7.684;2023-11-21T09:41:43;60.95;;;25.90;;
70467;SDS011;57934;51.532;7.684;2023-11-21T09:44:14;57.97;;;26.52;;
70467;SDS011;57934;51.532;7.684;2023-11-21T09:46:44;61.85;;;26.40;;
70467;SDS011;57934;51.532;7.684;2023-11-21T09:49:14;67.72;;;26.90;;
70467;SDS011;57934;51.532;7.684;2023-11-21T09:51:44;58.03;;;25.52;;
70467;SDS011;57934;51.532;7.684;2023-11-21T09:54:11;60.78;;;26.60;;
70467;SDS011;57934;51.532;7.684;2023-11-21T09:56:37;59.15;;;25.83;;
70467;SDS011;57934;51.532;7.684;2023-11-21T09:59:04;65.20;;;27.10;;
70467;SDS011;57934;51.532;7.684;2023-11-21T10:01:35;67.15;;;28.35;;
70467;SDS011;57934;51.532;7.684;2023-11-21T10:04:02;64.65;;;26.30;;
70467;SDS011;57934;51.532;7.684;2023-11-21T10:06:28;67.55;;;27.80;;
70467;SDS011;57934;51.532;7.684;2023-11-21T10:08:56;72.38;;;28.65;;
70467;SDS011;57934;51.532;7.684;2023-11-21T10:11:25;67.05;;;29.25;;
70467;SDS011;57934;51.532;7.684;2023-11-21T10:13:54;69.07;;;28.88;;
70467;SDS011;57934;51.532;7.684;2023-11-21T10:16:23;69.65;;;28.85;;
70467;SDS011;57934;51.532;7.684;2023-11-21T10:18:53;69.72;;;30.13;;
70467;SDS011;57934;51.532;7.684;2023-11-21T10:21:22;75.10;;;29.42;;
70467;SDS011;57934;51.532;7.684;2023-11-21T10:23:50;62.60;;;28.42;;
70467;SDS011;57934;51.532;7.684;2023-11-21T10:26:19;69.68;;;30.42;;
70467;SDS011;57934;51.532;7.684;2023-11-21T10:28:58;71.70;;;30.40;;
70467;SDS011;57934;51.532;7.684;2023-11-21T10:31:32;64.50;;;29.52;;
70467;SDS011;57934;51.532;7.684;2023-11-21T10:34:16;73.65;;;30.00;;
70467;SDS011;57934;51.532;7.684;2023-11-21T10:39:14;71.20;;;29.92;;
70467;SDS011;57934;51.532;7.684;2023-11-21T10:41:44;73.15;;;29.90;;
70467;SDS011;57934;51.532;7.684;2023-11-21T10:44:13;79.60;;;32.42;;
70467;SDS011;57934;51.532;7.684;2023-11-21T10:46:48;83.75;;;32.63;;
70467;SDS011;57934;51.532;7.684;2023-11-21T10:49:26;69.90;;;32.83;;
70467;SDS011;57934;51.532;7.684;2023-11-21T10:51:53;82.97;;;32.83;;
70467;SDS011;57934;51.532;7.684;2023-11-21T10:54:20;72.63;;;32.63;;
70467;SDS011;57934;51.532;7.684;2023-11-21T10:56:48;80.50;;;34.17;;
70467;SDS011;57934;51.532;7.684;2023-11-21T10:59:17;81.63;;;33.17;;
70467;SDS011;57934;51.532;7.684;2023-11-21T11:01:44;83.18;;;32.13;;
70467;SDS011;57934;51.532;7.684;2023-11-21T11:04:14;77.68;;;33.40;;
70467;SDS011;57934;51.532;7.684;2023-11-21T11:06:42;88.45;;;35.78;;
70467;SDS011;57934;51.532;7.684;2023-11-21T11:09:12;92.20;;;35.88;;
70467;SDS011;57934;51.532;7.684;2023-11-21T11:11:40;87.55;;;35.13;;
70467;SDS011;57934;51.532;7.684;2023-11-21T11:14:09;81.85;;;34.45;;
70467;SDS011;57934;51.532;7.684;2023-11-21T11:16:38;90.97;;;35.28;;
70467;SDS011;57934;51.532;7.684;2023-11-21T11:19:09;91.82;;;34.85;;
70467;SDS011;57934;51.532;7.684;2023-11-21T11:27:24;105.22;;;34.67;;
70467;SDS011;57934;51.532;7.684;2023-11-21T11:30:30;105.55;;;37.35;;
70467;SDS011;57934;51.532;7.684;2023-11-21T11:36:29;97.05;;;35.40;;
70467;SDS011;57934;51.532;7.684;2023-11-21T11:42:16;91.28;;;32.22;;
70467;SDS011;57934;51.532;7.684;2023-11-21T11:44:52;62.80;;;24.67;;
70467;SDS011;57934;51.532;7.684;2023-11-21T11:50:00;60.47;;;20.77;;
70467;SDS011;57934;51.532;7.684;2023-11-21T11:52:41;54.17;;;18.40;;
70467;SDS011;57934;51.532;7.684;2023-11-21T11:55:09;40.63;;;15.07;;
70467;SDS011;57934;51.532;7.684;2023-11-21T11:57:37;44.38;;;17.23;;
70467;SDS011;57934;51.532;7.684;2023-11-21T12:00:17;42.20;;;15.55;;
70467;SDS011;57934;51.532;7.684;2023-11-21T12:02:51;40.55;;;14.98;;
70467;SDS011;57934;51.532;7.684;2023-11-21T12:05:19;36.08;;;13.90;;
70467;SDS011;57934;51.532;7.684;2023-11-21T12:07:52;34.65;;;13.38;;
70467;SDS011;57934;51.532;7.684;2023-11-21T12:10:23;32.38;;;13.73;;
70467;SDS011;57934;51.532;7.684;2023-11-21T12:12:52;31.38;;;13.15;;
70467;SDS011;57934;51.532;7.684;2023-11-21T12:15:23;36.20;;;15.07;;
70467;SDS011;57934;51.532;7.684;2023-11-21T12:17:51;41.55;;;15.68;;
70467;SDS011;57934;51.532;7.684;2023-11-21T12:20:19;37.72;;;15.00;;
70467;SDS011;57934;51.532;7.684;2023-11-21T12:22:49;39.58;;;16.25;;
70467;SDS011;57934;51.532;7.684;2023-11-21T12:25:22;43.47;;;16.60;;
70467;SDS011;57934;51.532;7.684;2023-11-21T12:27:51;35.42;;;16.05;;
70467;SDS011;57934;51.532;7.684;2023-11-21T12:30:21;38.40;;;15.70;;
70467;SDS011;57934;51.532;7.684;2023-11-21T12:32:51;44.85;;;17.02;;
70467;SDS011;57934;51.532;7.684;2023-11-21T12:35:19;48.17;;;18.42;;
70467;SDS011;57934;51.532;7.684;2023-11-21T12:37:47;42.30;;;18.98;;
70467;SDS011;57934;51.532;7.684;2023-11-21T12:40:15;40.65;;;18.52;;
70467;SDS011;57934;51.532;7.684;2023-11-21T12:42:43;50.95;;;20.90;;
70467;SDS011;57934;51.532;7.684;2023-11-21T12:45:21;45.95;;;19.98;;
70467;SDS011;57934;51.532;7.684;2023-11-21T12:47:55;47.38;;;18.45;;
70467;SDS011;57934;51.532;7.684;2023-11-21T12:50:26;51.33;;;20.23;;
70467;SDS011;57934;51.532;7.684;2023-11-21T12:53:02;45.47;;;20.60;;
70467;SDS011;57934;51.532;7.684;2023-11-21T12:55:31;45.10;;;19.42;;
70467;SDS011;57934;51.532;7.684;2023-11-21T12:58:00;42.33;;;18.23;;
70467;SDS011;57934;51.532;7.684;2023-11-21T13:00:45;39.55;;;18.08;;
70467;SDS011;57934;51.532;7.684;2023-11-21T13:03:13;30.90;;;16.08;;
70467;SDS011;57934;51.532;7.684;2023-11-21T13:05:45;34.30;;;16.75;;
70467;SDS011;57934;51.532;7.684;2023-11-21T13:08:16;35.88;;;16.60;;
70467;SDS011;57934;51.532;7.684;2023-11-21T13:10:46;39.55;;;16.13;;
70467;SDS011;57934;51.532;7.684;2023-11-21T13:13:15;32.17;;;15.60;;
70467;SDS011;57934;51.532;7.684;2023-11-21T13:15:48;41.42;;;16.13;;
70467;SDS011;57934;51.532;7.684;2023-11-21T13:18:14;30.63;;;15.68;;
70467;SDS011;57934;51.532;7.684;2023-11-21T13:20:41;34.28;;;15.38;;
70467;SDS011;57934;51.532;7.684;2023-11-21T13:23:12;36.53;;;16.27;;
70467;SDS011;57934;51.532;7.684;2023-11-21T13:25:38;35.70;;;14.82;;
70467;SDS011;57934;51.532;7.684;2023-11-21T13:28:07;35.45;;;14.52;;
70467;SDS011;57934;51.532;7.684;2023-11-21T13:30:33;32.22;;;15.10;;
70467;SDS011;57934;51.532;7.684;2023-11-21T13:33:03;35.53;;;15.18;;
70467;SDS011;57934;51.532;7.684;2023-11-21T13:35:34;33.05;;;15.30;;
70467;SDS011;57934;51.532;7.684;2023-11-21T13:38:09;31.58;;;15.02;;
70467;SDS011;57934;51.532;7.684;2023-11-21T13:40:39;32.10;;;15.55;;
70467;SDS011;57934;51.532;7.684;2023-11-21T13:43:16;35.53;;;15.35;;
70467;SDS011;57934;51.532;7.684;2023-11-21T13:45:49;30.38;;;14.70;;
70467;SDS011;57934;51.532;7.684;2023-11-21T13:48:38;29.83;;;15.70;;
70467;SDS011;57934;51.532;7.684;2023-11-21T13:51:09;27.13;;;13.27;;
70467;SDS011;57934;51.532;7.684;2023-11-21T13:53:58;30.00;;;13.60;;
70467;SDS011;57934;51.532;7.684;2023-11-21T13:56:25;24.60;;;13.98;;
70467;SDS011;57934;51.532;7.684;2023-11-21T13:58:54;26.65;;;13.35;;
70467;SDS011;57934;51.532;7.684;2023-11-21T14:01:22;21.95;;;12.82;;
70467;SDS011;57934;51.532;7.684;2023-11-21T14:06:40;27.67;;;13.60;;
70467;SDS011;57934;51.532;7.684;2023-11-21T14:12:09;21.70;;;11.77;;
70467;SDS011;57934;51.532;7.684;2023-11-21T14:14:37;18.33;;;10.95;;
70467;SDS011;57934;51.532;7.684;2023-11-21T14:17:05;14.68;;;9.13;;
70467;SDS011;57934;51.532;7.684;2023-11-21T14:19:32;13.43;;;8.35;;
70467;SDS011;57934;51.532;7.684;2023-11-21T14:21:59;13.70;;;8.85;;
70467;SDS011;57934;51.532;7.684;2023-11-21T14:24:27;10.38;;;7.82;;
70467;SDS011;57934;51.532;7.684;2023-11-21T14:26:54;10.38;;;7.55;;
70467;SDS011;57934;51.532;7.684;2023-11-21T14:29:20;12.32;;;8.18;;
70467;SDS011;57934;51.532;7.684;2023-11-21T14:31:49;12.50;;;8.30;;
70467;SDS011;57934;51.532;7.684;2023-11-21T14:34:21;13.20;;;8.13;;
70467;SDS011;57934;51.532;7.684;2023-11-21T14:36:48;13.43;;;9.00;;
70467;SDS011;57934;51.532;7.684;2023-11-21T14:39:15;17.80;;;11.30;;
70467;SDS011;57934;51.532;7.684;2023-11-21T14:41:52;18.05;;;13.35;;
70467;SDS011;57934;51.532;7.684;2023-11-21T14:44:21;23.92;;;15.05;;
70467;SDS011;57934;51.532;7.684;2023-11-21T14:46:59;26.90;;;16.52;;
70467;SDS011;57934;51.532;7.684;2023-11-21T14:49:26;24.77;;;17.05;;
70467;SDS011;57934;51.532;7.684;2023-11-21T14:51:56;27.60;;;17.52;;